Time;durP1;ratioP1;P1;durP2;ratioP2;P2;SDS_P1;SDS_P2;PMS_P1;PMS_P2;Temp;Humidity;BMP_temperature;BMP_pressure;BME280_temperature;BME280_humidity;BME280_pressure;Samples;Min_cycle;Max_cycle;Signal;HPM_P1;HPM_P2
2021/06/14 00:02:01;;;;;;;;;;;17.50;99.90;;;;;;4975121;28;20017;-78
2021/06/14 00:04:28;;;;;;;;;;;17.50;99.90;;;;;;4976628;28;20357;-78
2021/06/14 00:06:55;;;;;;;;;;;17.50;99.90;;;;;;4977192;28;20347;-77
2021/06/14 00:09:24;;;;;;;;;;;17.50;99.90;;;;;;4977401;28;20314;-77
2021/06/14 00:11:50;;;;;;;;;;;17.50;99.90;;;;;;4977206;28;20179;-78
2021/06/14 00:14:19;;;;;;;;;;;17.50;99.90;;;;;;4976952;28;20012;-78
2021/06/14 00:16:46;;;;;;;;;;;17.40;99.90;;;;;;4977041;28;19998;-79
2021/06/14 00:19:13;;;;;;;;;;;17.40;99.90;;;;;;4977917;28;20405;-77
2021/06/14 00:21:40;;;;;;;;;;;17.30;99.90;;;;;;4977140;28;20041;-77
2021/06/14 00:24:07;;;;;;;;;;;17.30;99.90;;;;;;4976239;28;19957;-77
2021/06/14 00:26:34;;;;;;;;;;;17.20;99.90;;;;;;4977461;28;20009;-77
2021/06/14 00:29:01;;;;;;;;;;;17.20;99.90;;;;;;4978032;28;20013;-78
2021/06/14 00:31:29;;;;;;;;;;;17.20;99.90;;;;;;4977263;28;19922;-78
2021/06/14 00:33:55;;;;;;;;;;;17.10;99.90;;;;;;4976313;28;20009;-77
2021/06/14 00:36:22;;;;;;;;;;;17.00;99.90;;;;;;4976722;28;20355;-77
2021/06/14 00:38:49;;;;;;;;;;;17.00;99.90;;;;;;4976692;28;19922;-78
2021/06/14 00:41:15;;;;;;;;;;;16.90;99.90;;;;;;4976594;28;19964;-77
2021/06/14 00:43:42;;;;;;;;;;;16.90;99.90;;;;;;4976066;28;20415;-77
2021/06/14 00:46:09;;;;;;;;;;;16.80;99.90;;;;;;4977733;28;20013;-78
2021/06/14 00:48:37;;;;;;;;;;;16.70;99.90;;;;;;4978938;28;19930;-78
2021/06/14 00:51:05;;;;;;;;;;;16.70;99.90;;;;;;4977676;28;19953;-78
2021/06/14 00:53:32;;;;;;;;;;;16.60;99.90;;;;;;4978211;28;19922;-78
2021/06/14 00:56:00;;;;;;;;;;;16.60;99.90;;;;;;4977153;28;20327;-78
2021/06/14 00:58:27;;;;;;;;;;;16.60;99.90;;;;;;4978229;28;20020;-78
2021/06/14 01:00:54;;;;;;;;;;;16.60;99.90;;;;;;4976792;28;20001;-78
2021/06/14 01:03:21;;;;;;;;;;;16.50;99.90;;;;;;4976021;28;20010;-78
2021/06/14 01:05:50;;;;;;;;;;;16.50;99.90;;;;;;4976403;28;20425;-78
2021/06/14 01:08:17;;;;;;;;;;;16.40;99.90;;;;;;4977607;28;20386;-78
2021/06/14 01:10:44;;;;;;;;;;;16.40;99.90;;;;;;4980501;28;19953;-79
2021/06/14 01:13:17;;;;;;;;;;;16.40;99.90;;;;;;4979511;28;20243;-79
2021/06/14 01:15:51;;;;;;;;;;;16.30;99.90;;;;;;4980383;28;19961;-78
2021/06/14 01:18:19;;;;;;;;;;;16.30;99.90;;;;;;4979177;28;19933;-78
2021/06/14 01:20:55;;;;;;;;;;;16.30;99.90;;;;;;4989054;23;19961;-78
2021/06/14 01:23:35;;;;;;;;;;;16.30;99.90;;;;;;4955170;29;20363;-77
2021/06/14 01:26:03;;;;;;;;;;;16.20;99.90;;;;;;4955139;28;19978;-78
2021/06/14 01:28:32;;;;;;;;;;;16.20;99.90;;;;;;4955380;29;20398;-77
2021/06/14 01:30:59;;;;;;;;;;;16.10;99.90;;;;;;4954741;29;20013;-76
2021/06/14 01:33:26;;;;;;;;;;;16.10;99.90;;;;;;4954730;29;19929;-77
2021/06/14 01:35:54;;;;;;;;;;;16.10;99.90;;;;;;4954848;29;19962;-76
2021/06/14 01:38:22;;;;;;;;;;;16.00;99.90;;;;;;4954902;29;19922;-76
2021/06/14 01:40:50;;;;;;;;;;;16.00;99.90;;;;;;4954916;28;19982;-77
2021/06/14 01:43:18;;;;;;;;;;;16.00;99.90;;;;;;4954763;29;20009;-76
2021/06/14 01:45:48;;;;;;;;;;;16.00;99.90;;;;;;4955252;29;20021;-77
2021/06/14 01:48:15;;;;;;;;;;;15.90;99.90;;;;;;4954470;28;20017;-77
2021/06/14 01:50:43;;;;;;;;;;;15.90;99.90;;;;;;4954586;29;19993;-76
2021/06/14 01:53:10;;;;;;;;;;;15.90;99.90;;;;;;4954067;28;19934;-77
2021/06/14 01:55:36;;;;;;;;;;;15.80;99.90;;;;;;4955066;28;20328;-77
2021/06/14 01:58:03;;;;;;;;;;;15.80;99.90;;;;;;4954557;28;19922;-79
2021/06/14 02:00:30;;;;;;;;;;;15.70;99.90;;;;;;4954762;28;19955;-77
2021/06/14 02:03:00;;;;;;;;;;;15.80;99.90;;;;;;4954078;28;20501;-76
2021/06/14 02:05:29;;;;;;;;;;;15.70;99.90;;;;;;4954933;28;20426;-77
2021/06/14 02:07:56;;;;;;;;;;;15.70;99.90;;;;;;4954506;28;19967;-75
2021/06/14 02:10:23;;;;;;;;;;;15.70;99.90;;;;;;4954420;28;19995;-77
2021/06/14 02:12:50;;;;;;;;;;;15.60;99.90;;;;;;4954393;28;19980;-77
2021/06/14 02:15:18;;;;;;;;;;;15.50;99.90;;;;;;4955097;28;19922;-78
2021/06/14 02:17:45;;;;;;;;;;;15.40;99.90;;;;;;4955098;28;20025;-77
2021/06/14 02:20:14;;;;;;;;;;;15.40;99.90;;;;;;4955805;28;19933;-77
2021/06/14 02:22:41;;;;;;;;;;;15.40;99.90;;;;;;4954225;29;20266;-77
2021/06/14 02:25:09;;;;;;;;;;;15.40;99.90;;;;;;4953612;28;19923;-77
2021/06/14 02:27:37;;;;;;;;;;;15.40;99.90;;;;;;4954438;28;20302;-78
2021/06/14 02:30:04;;;;;;;;;;;15.30;99.90;;;;;;4954351;28;20228;-77
2021/06/14 02:32:32;;;;;;;;;;;15.20;99.90;;;;;;4954522;29;20299;-78
2021/06/14 02:34:59;;;;;;;;;;;15.20;99.90;;;;;;4954131;29;20013;-78
2021/06/14 02:37:27;;;;;;;;;;;15.10;99.90;;;;;;4954599;28;20055;-78
2021/06/14 02:39:54;;;;;;;;;;;15.10;99.90;;;;;;4953771;29;19954;-78
2021/06/14 02:42:21;;;;;;;;;;;15.10;99.90;;;;;;4954485;28;20331;-76
2021/06/14 02:44:48;;;;;;;;;;;15.00;99.90;;;;;;4954010;28;19926;-78
2021/06/14 02:47:16;;;;;;;;;;;15.00;99.90;;;;;;4953841;29;19961;-77
2021/06/14 02:49:43;;;;;;;;;;;15.00;99.90;;;;;;4954188;29;20338;-77
2021/06/14 02:52:12;;;;;;;;;;;15.00;99.90;;;;;;4953832;29;19962;-77
2021/06/14 02:54:44;;;;;;;;;;;15.00;99.90;;;;;;4953895;29;20087;-77
2021/06/14 02:57:12;;;;;;;;;;;15.00;99.90;;;;;;4953678;28;20012;-78
2021/06/14 02:59:39;;;;;;;;;;;15.00;99.90;;;;;;4954096;28;20032;-77
2021/06/14 03:02:06;;;;;;;;;;;14.90;99.90;;;;;;4953860;29;20017;-77
2021/06/14 03:04:33;;;;;;;;;;;14.90;99.90;;;;;;4953625;28;19952;-78
2021/06/14 03:07:00;;;;;;;;;;;14.90;99.90;;;;;;4954303;28;20399;-77
2021/06/14 03:09:28;;;;;;;;;;;14.90;99.90;;;;;;4954135;29;19922;-77
2021/06/14 03:11:57;;;;;;;;;;;14.90;99.90;;;;;;4953773;28;19948;-77
2021/06/14 03:14:24;;;;;;;;;;;14.90;99.90;;;;;;4953478;28;19976;-79
2021/06/14 03:16:51;;;;;;;;;;;14.80;99.90;;;;;;4953965;29;19922;-77
2021/06/14 03:19:21;;;;;;;;;;;14.80;99.90;;;;;;4954159;29;20433;-77
2021/06/14 03:21:47;;;;;;;;;;;14.70;99.90;;;;;;4954005;29;20377;-77
2021/06/14 03:24:15;;;;;;;;;;;14.70;99.90;;;;;;4955765;29;19922;-79
2021/06/14 03:26:43;;;;;;;;;;;14.70;99.90;;;;;;4953623;28;20017;-78
2021/06/14 03:29:15;;;;;;;;;;;14.70;99.90;;;;;;4953249;29;20009;-77
2021/06/14 03:31:42;;;;;;;;;;;14.60;99.90;;;;;;4953384;28;19970;-78
2021/06/14 03:34:12;;;;;;;;;;;14.70;99.90;;;;;;4953238;29;19922;-78
2021/06/14 03:36:40;;;;;;;;;;;14.60;99.90;;;;;;4956426;28;20021;-78
2021/06/14 03:39:07;;;;;;;;;;;14.70;99.90;;;;;;4958222;29;20036;-79
2021/06/14 03:41:34;;;;;;;;;;;14.60;99.90;;;;;;4957658;28;20018;-78
2021/06/14 03:44:02;;;;;;;;;;;14.50;99.90;;;;;;4958269;28;19964;-79
2021/06/14 03:46:30;;;;;;;;;;;14.60;99.90;;;;;;4957620;29;19973;-77
2021/06/14 03:48:56;;;;;;;;;;;14.50;99.90;;;;;;4958162;28;20338;-77
2021/06/14 03:51:23;;;;;;;;;;;14.60;99.90;;;;;;4957086;28;19972;-76
2021/06/14 03:53:57;;;;;;;;;;;14.60;99.90;;;;;;4957422;29;20340;-77
2021/06/14 03:56:24;;;;;;;;;;;14.60;99.90;;;;;;4957071;28;19973;-77
2021/06/14 03:58:51;;;;;;;;;;;14.60;99.90;;;;;;4957521;28;20031;-78
2021/06/14 04:01:18;;;;;;;;;;;14.70;99.90;;;;;;4957468;28;20272;-77
2021/06/14 04:03:53;;;;;;;;;;;14.70;99.90;;;;;;4957314;29;19961;-77
2021/06/14 04:06:20;;;;;;;;;;;14.80;99.90;;;;;;4957289;28;20012;-78
2021/06/14 04:08:47;;;;;;;;;;;15.10;99.90;;;;;;4957171;28;19933;-77
2021/06/14 04:11:13;;;;;;;;;;;15.80;99.90;;;;;;4956858;28;19969;-78
2021/06/14 04:13:40;;;;;;;;;;;16.50;99.90;;;;;;4957000;29;19923;-78
2021/06/14 04:16:07;;;;;;;;;;;17.10;99.90;;;;;;4956595;28;19934;-78
2021/06/14 04:18:33;;;;;;;;;;;17.70;99.90;;;;;;4956875;29;20020;-79
2021/06/14 04:21:02;;;;;;;;;;;18.40;99.90;;;;;;4956440;28;19953;-78
2021/06/14 04:23:28;;;;;;;;;;;18.90;99.90;;;;;;4957289;28;20395;-78
2021/06/14 04:25:55;;;;;;;;;;;19.30;99.90;;;;;;4956825;29;19986;-77
2021/06/14 04:28:22;;;;;;;;;;;19.70;99.90;;;;;;4956272;29;19961;-77
2021/06/14 04:30:48;;;;;;;;;;;20.20;99.90;;;;;;4956882;28;19984;-79
2021/06/14 04:33:15;;;;;;;;;;;20.50;99.90;;;;;;4956843;28;20405;-78
2021/06/14 04:35:42;;;;;;;;;;;20.80;99.90;;;;;;4957827;28;20083;-78
2021/06/14 04:38:10;;;;;;;;;;;20.90;99.90;;;;;;4956439;29;20009;-78
2021/06/14 04:40:36;;;;;;;;;;;20.70;99.90;;;;;;4956709;28;20025;-79
2021/06/14 04:43:03;;;;;;;;;;;20.30;99.90;;;;;;4955945;28;19957;-79
2021/06/14 04:45:30;;;;;;;;;;;20.10;99.90;;;;;;4956030;28;20013;-78
2021/06/14 04:47:56;;;;;;;;;;;19.80;99.90;;;;;;4955923;28;19922;-78
2021/06/14 04:50:23;;;;;;;;;;;19.80;99.90;;;;;;4956342;28;19969;-78
2021/06/14 04:52:50;;;;;;;;;;;20.00;99.90;;;;;;4956360;29;20445;-77
2021/06/14 04:55:18;;;;;;;;;;;19.90;99.90;;;;;;4956215;29;20017;-78
2021/06/14 04:57:45;;;;;;;;;;;19.80;99.90;;;;;;4955828;28;20017;-78
2021/06/14 05:00:12;;;;;;;;;;;19.80;99.90;;;;;;4955703;29;20107;-77
2021/06/14 05:02:38;;;;;;;;;;;19.90;99.90;;;;;;4957157;28;19977;-77
2021/06/14 05:05:06;;;;;;;;;;;20.00;99.90;;;;;;4960885;29;20025;-78
2021/06/14 05:07:33;;;;;;;;;;;20.10;99.90;;;;;;4955998;29;20032;-78
2021/06/14 05:09:59;;;;;;;;;;;20.20;99.90;;;;;;4955929;29;19954;-78
2021/06/14 05:12:29;;;;;;;;;;;20.40;99.90;;;;;;4955674;29;19928;-79
2021/06/14 05:14:55;;;;;;;;;;;20.50;99.90;;;;;;4955508;29;19922;-78
2021/06/14 05:17:22;;;;;;;;;;;20.70;99.90;;;;;;4956770;29;19930;-79
2021/06/14 05:19:49;;;;;;;;;;;21.00;99.90;;;;;;4957667;28;19974;-78
2021/06/14 05:22:16;;;;;;;;;;;21.50;99.90;;;;;;4955569;28;20399;-77
2021/06/14 05:24:42;;;;;;;;;;;21.70;99.90;;;;;;4954873;28;19981;-76
2021/06/14 05:27:09;;;;;;;;;;;22.20;99.90;;;;;;4955133;29;20084;-78
2021/06/14 05:29:37;;;;;;;;;;;23.00;99.90;;;;;;4955085;28;20032;-75
2021/06/14 05:32:04;;;;;;;;;;;23.60;99.90;;;;;;4955273;28;19933;-77
2021/06/14 05:34:31;;;;;;;;;;;24.00;99.90;;;;;;4954911;29;20025;-77
2021/06/14 05:36:58;;;;;;;;;;;24.50;99.90;;;;;;4954822;28;20005;-77
2021/06/14 05:39:24;;;;;;;;;;;24.50;99.90;;;;;;4954941;28;19965;-76
2021/06/14 05:41:51;;;;;;;;;;;24.60;99.90;;;;;;4954833;29;19930;-77
2021/06/14 05:44:18;;;;;;;;;;;24.70;99.90;;;;;;4954588;28;20362;-78
2021/06/14 05:46:46;;;;;;;;;;;24.70;99.90;;;;;;4954925;29;20018;-77
2021/06/14 05:49:12;;;;;;;;;;;24.40;99.90;;;;;;4955119;28;19926;-79
2021/06/14 05:51:40;;;;;;;;;;;24.60;99.90;;;;;;4955343;28;20016;-77
2021/06/14 05:54:07;;;;;;;;;;;24.70;99.90;;;;;;4954860;29;19929;-78
2021/06/14 05:56:34;;;;;;;;;;;24.60;99.90;;;;;;4955281;28;19922;-78
2021/06/14 05:59:02;;;;;;;;;;;24.70;99.90;;;;;;4954192;28;19922;-78
2021/06/14 06:01:29;;;;;;;;;;;24.80;99.90;;;;;;4956174;29;19981;-75
2021/06/14 06:03:57;;;;;;;;;;;24.60;99.90;;;;;;4954376;28;19934;-77
2021/06/14 06:06:24;;;;;;;;;;;24.70;99.90;;;;;;4951891;29;20040;-75
2021/06/14 06:08:51;;;;;;;;;;;24.70;99.90;;;;;;4953753;29;20017;-75
2021/06/14 06:11:18;;;;;;;;;;;24.60;99.90;;;;;;4953700;29;20136;-76
2021/06/14 06:13:44;;;;;;;;;;;24.70;99.90;;;;;;4953214;28;19923;-77
2021/06/14 06:16:11;;;;;;;;;;;24.90;99.90;;;;;;4953956;29;19922;-76
2021/06/14 06:18:37;;;;;;;;;;;25.20;99.90;;;;;;4953827;29;19923;-76
2021/06/14 06:21:06;;;;;;;;;;;25.60;99.90;;;;;;4955145;29;20005;-76
2021/06/14 06:23:32;;;;;;;;;;;25.60;99.90;;;;;;4955317;29;20447;-77
2021/06/14 06:25:59;;;;;;;;;;;25.80;99.90;;;;;;4954684;29;20013;-77
2021/06/14 06:28:26;;;;;;;;;;;25.80;99.90;;;;;;4955622;29;20009;-77
2021/06/14 06:30:52;;;;;;;;;;;25.90;99.90;;;;;;4954473;29;20009;-77
2021/06/14 06:33:19;;;;;;;;;;;25.70;99.90;;;;;;4953398;29;19926;-78
2021/06/14 06:35:46;;;;;;;;;;;25.50;99.90;;;;;;4954091;29;20002;-76
2021/06/14 06:38:14;;;;;;;;;;;25.80;99.90;;;;;;4953195;29;20005;-78
2021/06/14 06:40:41;;;;;;;;;;;26.30;99.90;;;;;;4952221;29;19922;-78
2021/06/14 06:43:07;;;;;;;;;;;26.50;99.90;;;;;;4954813;28;20008;-78
2021/06/14 06:45:34;;;;;;;;;;;27.00;99.90;;;;;;4952865;29;20005;-77
2021/06/14 06:48:01;;;;;;;;;;;27.30;99.90;;;;;;4952714;29;20013;-78
2021/06/14 06:50:28;;;;;;;;;;;27.50;99.90;;;;;;4953165;29;19933;-78
2021/06/14 06:52:55;;;;;;;;;;;27.20;99.90;;;;;;4953126;29;20426;-76
2021/06/14 06:55:23;;;;;;;;;;;26.80;99.90;;;;;;4952362;28;19926;-78
2021/06/14 06:57:49;;;;;;;;;;;26.70;99.90;;;;;;4954016;29;19969;-78
2021/06/14 07:00:17;;;;;;;;;;;26.50;99.90;;;;;;4952958;29;19922;-78
2021/06/14 07:02:44;;;;;;;;;;;26.60;99.90;;;;;;4953312;29;20364;-78
2021/06/14 07:05:11;;;;;;;;;;;26.90;99.90;;;;;;4952450;29;20013;-78
2021/06/14 07:07:38;;;;;;;;;;;27.30;99.90;;;;;;4952904;28;20021;-79
2021/06/14 07:10:06;;;;;;;;;;;27.90;99.90;;;;;;4952670;28;20009;-78
2021/06/14 07:12:34;;;;;;;;;;;28.60;99.80;;;;;;4953132;29;19922;-78
2021/06/14 07:15:01;;;;;;;;;;;29.10;99.40;;;;;;4954193;29;19946;-79
2021/06/14 07:17:28;;;;;;;;;;;28.80;98.40;;;;;;4952636;29;19994;-80
2021/06/14 07:22:28;;;;;;;;;;;29.20;98.90;;;;;;4954631;23;20419;-78
2021/06/14 07:24:54;;;;;;;;;;;29.70;97.00;;;;;;4932164;29;20010;-77
2021/06/14 07:27:21;;;;;;;;;;;30.10;96.70;;;;;;4932986;29;19977;-78
2021/06/14 07:29:49;;;;;;;;;;;30.10;95.70;;;;;;4934071;29;19970;-79
2021/06/14 07:32:15;;;;;;;;;;;30.10;95.50;;;;;;4934817;29;20017;-78
2021/06/14 07:34:42;;;;;;;;;;;30.30;95.60;;;;;;4933751;29;20507;-77
2021/06/14 07:37:09;;;;;;;;;;;30.10;95.10;;;;;;4933239;29;20565;-77
2021/06/14 07:39:36;;;;;;;;;;;30.10;95.50;;;;;;4933438;29;20310;-77
2021/06/14 07:42:03;;;;;;;;;;;30.30;94.60;;;;;;4933647;29;20358;-78
2021/06/14 07:44:30;;;;;;;;;;;29.90;93.80;;;;;;4933352;29;20435;-77
2021/06/14 07:46:58;;;;;;;;;;;29.60;95.00;;;;;;4932064;29;20247;-78
2021/06/14 07:49:25;;;;;;;;;;;29.30;94.60;;;;;;4933151;29;20032;-78
2021/06/14 07:51:51;;;;;;;;;;;29.30;94.40;;;;;;4933411;29;19966;-77
2021/06/14 07:54:18;;;;;;;;;;;29.40;95.60;;;;;;4933663;29;19978;-79
2021/06/14 07:56:46;;;;;;;;;;;29.10;94.60;;;;;;4931665;29;20009;-79
2021/06/14 07:59:13;;;;;;;;;;;29.20;95.50;;;;;;4933393;29;19926;-78
2021/06/14 08:01:40;;;;;;;;;;;29.60;94.70;;;;;;4933618;29;20107;-79
2021/06/14 08:04:08;;;;;;;;;;;29.60;93.90;;;;;;4933515;29;20021;-79
2021/06/14 08:06:35;;;;;;;;;;;29.40;93.80;;;;;;4933461;29;20089;-78
2021/06/14 08:09:05;;;;;;;;;;;29.20;93.90;;;;;;4935643;29;20010;-79
2021/06/14 08:11:32;;;;;;;;;;;29.00;94.20;;;;;;4934932;29;20060;-78
2021/06/14 08:13:59;;;;;;;;;;;28.50;95.20;;;;;;4933939;29;19923;-77
2021/06/14 08:16:26;;;;;;;;;;;28.30;95.70;;;;;;4932412;29;19928;-78
2021/06/14 08:19:02;;;;;;;;;;;28.50;96.80;;;;;;4934192;29;19970;-79
2021/06/14 08:21:41;;;;;;;;;;;28.70;94.80;;;;;;4935274;29;19923;-77
2021/06/14 08:26:53;;;;;;;;;;;29.10;94.50;;;;;;4938801;29;19990;-79
2021/06/14 08:29:20;;;;;;;;;;;29.20;95.40;;;;;;4939605;29;19929;-81
2021/06/14 08:31:47;;;;;;;;;;;29.40;95.00;;;;;;4940213;29;19970;-77
2021/06/14 08:34:13;;;;;;;;;;;29.50;93.70;;;;;;4937716;29;19922;-78
2021/06/14 08:36:42;;;;;;;;;;;29.70;94.60;;;;;;4939088;29;19929;-79
2021/06/14 08:39:10;;;;;;;;;;;29.60;92.90;;;;;;4940263;29;20006;-80
2021/06/14 08:41:37;;;;;;;;;;;29.60;93.70;;;;;;4939627;29;19927;-76
2021/06/14 08:44:04;;;;;;;;;;;29.70;94.10;;;;;;4938896;29;19966;-76
2021/06/14 08:46:31;;;;;;;;;;;29.70;93.60;;;;;;4936185;29;20025;-77
2021/06/14 08:48:57;;;;;;;;;;;29.70;93.00;;;;;;4937839;29;19961;-79
2021/06/14 08:51:24;;;;;;;;;;;29.90;94.00;;;;;;4937940;29;20005;-77
2021/06/14 08:53:52;;;;;;;;;;;30.30;94.30;;;;;;4937523;29;20113;-78
2021/06/14 08:56:20;;;;;;;;;;;30.90;93.50;;;;;;4935554;29;19923;-79
2021/06/14 08:58:47;;;;;;;;;;;31.10;91.90;;;;;;4936152;29;19933;-78
2021/06/14 09:01:14;;;;;;;;;;;31.10;92.30;;;;;;4936683;29;19953;-78
2021/06/14 09:03:41;;;;;;;;;;;31.00;91.40;;;;;;4936406;29;20009;-78
2021/06/14 09:06:08;;;;;;;;;;;31.00;91.70;;;;;;4936695;29;20005;-77
2021/06/14 09:08:35;;;;;;;;;;;30.60;92.10;;;;;;4937015;29;20017;-78
2021/06/14 09:11:03;;;;;;;;;;;30.60;92.40;;;;;;4937409;29;20334;-77
2021/06/14 09:13:32;;;;;;;;;;;31.20;91.60;;;;;;4937148;29;20013;-78
2021/06/14 09:16:05;;;;;;;;;;;31.10;89.80;;;;;;4936649;29;20379;-77
2021/06/14 09:18:32;;;;;;;;;;;30.70;90.10;;;;;;4937326;29;20093;-79
2021/06/14 09:21:00;;;;;;;;;;;30.60;91.70;;;;;;4937822;29;20340;-79
2021/06/14 09:23:38;;;;;;;;;;;30.80;90.80;;;;;;4938480;29;19994;-78
2021/06/14 09:26:06;;;;;;;;;;;30.80;91.00;;;;;;4938676;29;19962;-79
2021/06/14 09:28:32;;;;;;;;;;;31.00;88.10;;;;;;4939303;29;20039;-80
2021/06/14 09:31:12;;;;;;;;;;;30.80;89.00;;;;;;4938326;29;20021;-78
2021/06/14 09:33:42;;;;;;;;;;;30.80;89.20;;;;;;4938481;29;19929;-79
2021/06/14 09:36:09;;;;;;;;;;;31.10;90.60;;;;;;4938068;29;20369;-78
2021/06/14 09:38:36;;;;;;;;;;;31.00;90.00;;;;;;4938596;29;19994;-80
2021/06/14 09:41:09;;;;;;;;;;;31.10;90.40;;;;;;4938514;29;20051;-80
2021/06/14 09:43:38;;;;;;;;;;;31.20;90.40;;;;;;4939944;29;20041;-79
2021/06/14 09:46:06;;;;;;;;;;;31.40;89.00;;;;;;4938092;29;20025;-80
2021/06/14 09:48:35;;;;;;;;;;;31.30;90.30;;;;;;4936995;29;19978;-78
2021/06/14 09:51:05;;;;;;;;;;;31.10;87.60;;;;;;4937823;29;20016;-79
2021/06/14 09:53:35;;;;;;;;;;;31.00;90.10;;;;;;4938667;29;19938;-80
2021/06/14 09:56:16;;;;;;;;;;;31.10;90.00;;;;;;4935414;29;20386;-81
2021/06/14 09:58:44;;;;;;;;;;;31.00;87.80;;;;;;4937002;29;19930;-80
2021/06/14 10:01:11;;;;;;;;;;;30.60;90.30;;;;;;4936751;29;19965;-79
2021/06/14 10:03:42;;;;;;;;;;;30.50;88.80;;;;;;4940048;29;20017;-78
2021/06/14 10:06:08;;;;;;;;;;;30.50;90.90;;;;;;4932372;29;19931;-77
2021/06/14 10:08:36;;;;;;;;;;;30.20;90.30;;;;;;4933449;29;20395;-78
2021/06/14 10:11:04;;;;;;;;;;;30.00;89.80;;;;;;4934034;29;19931;-78
2021/06/14 10:13:31;;;;;;;;;;;29.90;91.70;;;;;;4932969;29;20002;-79
2021/06/14 10:16:03;;;;;;;;;;;29.70;90.10;;;;;;4931763;29;19966;-79
2021/06/14 10:18:30;;;;;;;;;;;29.60;91.80;;;;;;4933986;29;20413;-78
2021/06/14 10:20:57;;;;;;;;;;;29.30;89.60;;;;;;4935346;28;20014;-80
2021/06/14 10:23:24;;;;;;;;;;;29.10;90.10;;;;;;4948159;29;19994;-79
2021/06/14 10:25:50;;;;;;;;;;;29.00;91.00;;;;;;4932752;29;19933;-79
2021/06/14 10:28:17;;;;;;;;;;;29.10;92.00;;;;;;4934765;29;20037;-79
2021/06/14 10:30:44;;;;;;;;;;;29.00;90.40;;;;;;4936864;29;19958;-79
2021/06/14 10:33:14;;;;;;;;;;;29.00;89.40;;;;;;4936820;29;20454;-77
2021/06/14 10:35:41;;;;;;;;;;;29.10;90.30;;;;;;4932934;29;19922;-79
2021/06/14 10:38:08;;;;;;;;;;;28.80;85.20;;;;;;4939101;29;20016;-80
2021/06/14 10:40:35;;;;;;;;;;;28.60;85.80;;;;;;4942150;29;19962;-80
2021/06/14 10:43:02;;;;;;;;;;;28.60;90.40;;;;;;4940323;29;19922;-81
2021/06/14 10:45:30;;;;;;;;;;;28.70;90.50;;;;;;4941042;29;19929;-81
2021/06/14 10:47:57;;;;;;;;;;;28.60;88.20;;;;;;4939722;29;19933;-80
2021/06/14 10:50:27;;;;;;;;;;;28.50;87.50;;;;;;4940377;29;20626;-82
2021/06/14 10:52:55;;;;;;;;;;;28.50;90.10;;;;;;4938688;29;20013;-79
2021/06/14 10:55:25;;;;;;;;;;;28.30;87.00;;;;;;4937530;29;19935;-79
2021/06/14 10:57:51;;;;;;;;;;;28.40;90.70;;;;;;4935354;29;20013;-78
2021/06/14 11:00:22;;;;;;;;;;;28.50;90.00;;;;;;4938404;29;20465;-79
2021/06/14 11:02:53;;;;;;;;;;;28.60;88.90;;;;;;4937968;29;19938;-80
2021/06/14 11:05:29;;;;;;;;;;;28.70;90.10;;;;;;4937112;29;19977;-79
2021/06/14 11:07:56;;;;;;;;;;;28.60;90.30;;;;;;4938259;29;19923;-79
2021/06/14 11:10:25;;;;;;;;;;;28.70;90.30;;;;;;4939775;29;19922;-80
2021/06/14 11:12:51;;;;;;;;;;;28.80;90.00;;;;;;4938010;29;20021;-82
2021/06/14 11:15:20;;;;;;;;;;;28.90;90.20;;;;;;4937574;29;19985;-80
2021/06/14 11:17:47;;;;;;;;;;;29.10;89.40;;;;;;4937581;29;19957;-80
2021/06/14 11:20:14;;;;;;;;;;;29.10;89.90;;;;;;4937196;29;19954;-79
2021/06/14 11:22:43;;;;;;;;;;;29.00;90.10;;;;;;4939237;29;19969;-79
2021/06/14 11:25:21;;;;;;;;;;;29.10;90.60;;;;;;4940544;29;19958;-80
2021/06/14 11:27:48;;;;;;;;;;;29.20;90.40;;;;;;4939852;29;20384;-79
2021/06/14 11:30:15;;;;;;;;;;;29.20;88.60;;;;;;4938864;29;19961;-79
2021/06/14 11:32:42;;;;;;;;;;;29.10;89.20;;;;;;4935284;29;20009;-77
2021/06/14 11:35:09;;;;;;;;;;;29.10;89.00;;;;;;4935874;29;20352;-78
2021/06/14 11:37:39;;;;;;;;;;;29.20;87.90;;;;;;4933650;29;19946;-78
2021/06/14 11:40:10;;;;;;;;;;;29.30;88.30;;;;;;4936549;29;20029;-79
2021/06/14 11:42:44;;;;;;;;;;;29.10;85.10;;;;;;4937339;29;19922;-82
2021/06/14 11:45:21;;;;;;;;;;;28.90;85.20;;;;;;4937530;29;20334;-79
2021/06/14 11:47:48;;;;;;;;;;;28.90;89.20;;;;;;4935607;29;19970;-78
2021/06/14 11:50:21;;;;;;;;;;;29.10;87.50;;;;;;4935184;29;19922;-78
2021/06/14 11:52:56;;;;;;;;;;;29.30;83.20;;;;;;4935537;29;19937;-80
2021/06/14 11:55:24;;;;;;;;;;;29.30;81.70;;;;;;4935717;29;19934;-80
2021/06/14 11:57:55;;;;;;;;;;;29.30;79.90;;;;;;4938739;29;19964;-79
2021/06/14 12:00:26;;;;;;;;;;;29.20;80.70;;;;;;4942945;29;19930;-80
2021/06/14 12:02:53;;;;;;;;;;;29.30;84.00;;;;;;4940148;29;20009;-79
2021/06/14 12:05:28;;;;;;;;;;;29.50;83.70;;;;;;4942638;29;19969;-78
2021/06/14 12:07:55;;;;;;;;;;;29.60;80.50;;;;;;4938674;29;19930;-78
2021/06/14 12:10:23;;;;;;;;;;;29.40;79.00;;;;;;4940650;29;19929;-78
2021/06/14 12:13:00;;;;;;;;;;;29.40;85.60;;;;;;4942518;29;19923;-78
2021/06/14 12:15:27;;;;;;;;;;;29.50;84.80;;;;;;4944131;29;19961;-79
2021/06/14 12:17:54;;;;;;;;;;;29.50;84.00;;;;;;4943224;29;19993;-79
2021/06/14 12:20:23;;;;;;;;;;;29.60;83.00;;;;;;4944846;29;19976;-78
2021/06/14 12:22:49;;;;;;;;;;;29.60;83.70;;;;;;4942096;29;20021;-81
2021/06/14 12:25:16;;;;;;;;;;;29.70;82.90;;;;;;4939368;29;20009;-79
2021/06/14 12:27:43;;;;;;;;;;;29.70;80.30;;;;;;4942761;29;19977;-78
2021/06/14 12:30:12;;;;;;;;;;;29.60;81.60;;;;;;4943151;29;19988;-79
2021/06/14 12:32:40;;;;;;;;;;;29.50;81.20;;;;;;4938511;29;19967;-78
2021/06/14 12:35:08;;;;;;;;;;;29.50;81.70;;;;;;4936551;29;19982;-80
2021/06/14 12:37:34;;;;;;;;;;;29.70;81.70;;;;;;4935624;29;19973;-79
2021/06/14 12:40:03;;;;;;;;;;;29.70;79.20;;;;;;4941296;29;19969;-79
2021/06/14 12:42:33;;;;;;;;;;;29.70;80.00;;;;;;4940520;29;19931;-80
2021/06/14 12:45:01;;;;;;;;;;;29.70;79.80;;;;;;4945558;29;19923;-80
2021/06/14 12:47:29;;;;;;;;;;;29.80;80.90;;;;;;4943064;29;20359;-79
2021/06/14 12:50:12;;;;;;;;;;;29.90;80.80;;;;;;4940576;29;20025;-78
2021/06/14 12:52:39;;;;;;;;;;;29.90;79.70;;;;;;4926806;29;19934;-79
2021/06/14 12:55:06;;;;;;;;;;;29.90;78.30;;;;;;4938688;29;19923;-80
2021/06/14 12:57:37;;;;;;;;;;;29.80;77.40;;;;;;4941157;29;20020;-79
2021/06/14 13:00:07;;;;;;;;;;;29.80;79.10;;;;;;4941188;29;19923;-80
2021/06/14 13:02:35;;;;;;;;;;;29.90;78.10;;;;;;4939108;29;19950;-79
2021/06/14 13:05:09;;;;;;;;;;;29.80;79.50;;;;;;4936399;29;20435;-78
2021/06/14 13:07:36;;;;;;;;;;;29.80;78.60;;;;;;4932704;29;19923;-79
2021/06/14 13:10:12;;;;;;;;;;;29.50;78.80;;;;;;4926564;29;20366;-80
2021/06/14 13:12:39;;;;;;;;;;;29.50;80.10;;;;;;4920360;29;19969;-79
2021/06/14 13:15:06;;;;;;;;;;;29.60;81.40;;;;;;4918130;29;19939;-79
2021/06/14 13:17:34;;;;;;;;;;;29.50;79.80;;;;;;4917787;29;20420;-78
2021/06/14 13:20:01;;;;;;;;;;;29.50;80.70;;;;;;4920186;29;19980;-79
2021/06/14 13:22:34;;;;;;;;;;;29.50;80.30;;;;;;4962173;23;19962;-79
2021/06/14 13:25:03;;;;;;;;;;;29.30;80.00;;;;;;4946020;29;19923;-79
2021/06/14 13:27:31;;;;;;;;;;;29.30;81.00;;;;;;4952749;29;20357;-79
2021/06/14 13:29:58;;;;;;;;;;;29.40;82.50;;;;;;4954172;28;19973;-80
2021/06/14 13:32:32;;;;;;;;;;;29.50;82.40;;;;;;4957247;29;19968;-79
2021/06/14 13:35:01;;;;;;;;;;;29.60;82.30;;;;;;4955440;28;19922;-78
2021/06/14 13:37:36;;;;;;;;;;;29.70;81.80;;;;;;4950713;29;20349;-78
2021/06/14 13:40:07;;;;;;;;;;;29.70;79.40;;;;;;4953605;28;20020;-79
2021/06/14 13:42:40;;;;;;;;;;;29.70;79.10;;;;;;4952065;29;19929;-78
2021/06/14 13:45:08;;;;;;;;;;;29.80;81.30;;;;;;4953634;28;20065;-78
2021/06/14 13:47:34;;;;;;;;;;;29.90;82.70;;;;;;4953448;28;19923;-79
2021/06/14 13:50:06;;;;;;;;;;;29.90;81.60;;;;;;4958260;29;20012;-78
2021/06/14 13:52:32;;;;;;;;;;;29.80;80.30;;;;;;4954548;29;20016;-79
2021/06/14 13:55:01;;;;;;;;;;;29.70;80.50;;;;;;4953963;29;19961;-79
2021/06/14 13:57:28;;;;;;;;;;;29.60;81.30;;;;;;4950993;28;19926;-79
2021/06/14 14:00:04;;;;;;;;;;;29.70;82.40;;;;;;4953860;29;19923;-78
2021/06/14 14:02:31;;;;;;;;;;;29.70;82.10;;;;;;4935333;29;19996;-78
2021/06/14 14:04:59;;;;;;;;;;;29.80;82.60;;;;;;4935260;29;19982;-77
2021/06/14 14:07:27;;;;;;;;;;;29.80;81.70;;;;;;4934394;29;19923;-82
2021/06/14 14:09:53;;;;;;;;;;;29.60;81.60;;;;;;4937136;29;19923;-79
2021/06/14 14:14:55;;;;;;;;;;;29.60;83.40;;;;;;4954339;23;19949;-77
2021/06/14 14:17:24;;;;;;;;;;;29.60;84.40;;;;;;4953442;28;19923;-80
2021/06/14 14:22:56;;;;;;;;;;;29.80;82.40;;;;;;4934101;29;20013;-75
2021/06/14 14:25:50;;;;;;;;;;;29.80;83.40;;;;;;4933890;29;20017;-78
2021/06/14 14:31:03;;;;;;;;;;;29.60;84.00;;;;;;4974555;28;19945;-80
2021/06/14 14:33:38;;;;;;;;;;;29.60;84.10;;;;;;4977379;28;19922;-80
2021/06/14 14:36:08;;;;;;;;;;;29.70;84.90;;;;;;4974888;28;19922;-80